Time;durP1;ratioP1;P1;durP2;ratioP2;P2;SDS_P1;SDS_P2;PMS_P1;PMS_P2;Temp;Humidity;BMP_temperature;BMP_pressure;BME280_temperature;BME280_humidity;BME280_pressure;Samples;Min_cycle;Max_cycle;Signal;HPM_P1;HPM_P2
2022/06/10 00:00:17;;;;;;;0.00;0.00;;;17.60;99.90;;;;;;5042684;28;20313;-76
2022/06/10 00:02:45;;;;;;;0.00;0.00;;;17.60;99.90;;;;;;5045929;28;20210;-76
2022/06/10 00:05:16;;;;;;;0.00;0.00;;;17.50;99.90;;;;;;5062006;28;20230;-77
2022/06/10 00:07:43;;;;;;;0.00;0.00;;;17.50;99.90;;;;;;5040259;28;20198;-77
2022/06/10 00:10:14;;;;;;;0.00;0.00;;;17.50;99.90;;;;;;5065556;28;20208;-77
2022/06/10 00:12:41;;;;;;;0.00;0.00;;;17.50;99.90;;;;;;5059058;28;20240;-78
2022/06/10 00:15:10;;;;;;;0.00;0.00;;;17.40;99.90;;;;;;5065594;28;20209;-77
2022/06/10 00:17:37;;;;;;;0.00;0.00;;;17.40;99.90;;;;;;5046835;28;20256;-77
2022/06/10 00:20:05;;;;;;;0.00;0.00;;;17.40;99.90;;;;;;5059705;28;20229;-78
2022/06/10 00:22:33;;;;;;;0.00;0.00;;;17.40;99.90;;;;;;5061650;28;20220;-77
2022/06/10 00:25:01;;;;;;;0.00;0.00;;;17.30;99.90;;;;;;5064361;28;20739;-77
2022/06/10 00:27:28;;;;;;;0.00;0.00;;;17.30;99.90;;;;;;5061733;28;20205;-77
2022/06/10 00:29:55;;;;;;;0.00;0.00;;;17.30;99.90;;;;;;5041771;28;20205;-77
2022/06/10 00:32:22;;;;;;;0.00;0.00;;;17.30;99.90;;;;;;5044540;28;20226;-76
2022/06/10 00:34:50;;;;;;;0.00;0.00;;;17.30;99.90;;;;;;5042559;28;20199;-77
2022/06/10 00:37:18;;;;;;;0.00;0.00;;;17.20;99.90;;;;;;5044291;28;20203;-77
2022/06/10 00:39:46;;;;;;;0.00;0.00;;;17.20;99.90;;;;;;5057557;28;20215;-77
2022/06/10 00:42:13;;;;;;;0.00;0.00;;;17.20;99.90;;;;;;5047322;28;20226;-77
2022/06/10 00:44:44;;;;;;;0.00;0.00;;;17.20;99.90;;;;;;5041388;28;20205;-77
2022/06/10 00:47:16;;;;;;;0.00;0.00;;;17.10;99.90;;;;;;5062562;28;20257;-76
2022/06/10 00:49:48;;;;;;;0.00;0.00;;;17.10;99.90;;;;;;5041300;28;20293;-77
2022/06/10 00:52:23;;;;;;;0.00;0.00;;;17.10;99.90;;;;;;5063962;28;20226;-77
2022/06/10 00:54:53;;;;;;;0.00;0.00;;;17.10;99.90;;;;;;5045803;28;20198;-77
2022/06/10 00:57:25;;;;;;;0.00;0.00;;;17.10;99.90;;;;;;5060890;28;20194;-77
2022/06/10 00:59:57;;;;;;;0.00;0.00;;;17.00;99.90;;;;;;5063960;28;20225;-77
2022/06/10 01:02:27;;;;;;;0.00;0.00;;;17.00;99.90;;;;;;5046105;28;20230;-77
2022/06/10 01:04:57;;;;;;;0.00;0.00;;;16.90;99.90;;;;;;5059434;28;20190;-77
2022/06/10 01:07:27;;;;;;;0.00;0.00;;;16.90;99.90;;;;;;5064342;28;20194;-77
2022/06/10 01:09:56;;;;;;;0.00;0.00;;;16.90;99.90;;;;;;5057554;28;20191;-77
2022/06/10 01:12:37;;;;;;;0.00;0.00;;;16.90;99.90;;;;;;5045216;28;20229;-77
2022/06/10 01:15:18;;;;;;;0.00;0.00;;;16.80;99.90;;;;;;5046702;28;20214;-77
2022/06/10 01:17:57;;;;;;;0.00;0.00;;;16.80;99.90;;;;;;5045019;28;20252;-77
2022/06/10 01:20:40;;;;;;;0.00;0.00;;;16.80;99.90;;;;;;5044958;28;20218;-77
2022/06/10 01:23:37;;;;;;;0.00;0.00;;;16.80;99.90;;;;;;5059272;28;20210;-77
2022/06/10 01:26:23;;;;;;;0.00;0.00;;;16.70;99.90;;;;;;5040267;28;20207;-77
2022/06/10 01:29:01;;;;;;;0.00;0.00;;;;;;;;;;5044237;28;20213;-77
2022/06/10 01:31:33;;;;;;;0.00;0.00;;;;;;;;;;5063070;28;20222;-78
2022/06/10 01:34:10;;;;;;;0.00;0.00;;;;;;;;;;5057343;28;20227;-77
2022/06/10 01:36:43;;;;;;;0.00;0.00;;;;;;;;;;5045610;28;20198;-77
2022/06/10 01:39:18;;;;;;;0.00;0.00;;;;;;;;;;5043792;28;20249;-77
2022/06/10 01:41:48;;;;;;;0.00;0.00;;;;;;;;;;5040778;28;20218;-77
2022/06/10 01:44:20;;;;;;;0.00;0.00;;;;;;;;;;5045290;28;20203;-77
2022/06/10 01:46:56;;;;;;;0.00;0.00;;;16.70;99.90;;;;;;5045841;28;20248;-78
2022/06/10 01:49:28;;;;;;;0.00;0.00;;;16.40;99.90;;;;;;5045971;28;20674;-76
2022/06/10 01:52:01;;;;;;;0.00;0.00;;;16.40;99.90;;;;;;5039343;28;20249;-76
2022/06/10 01:54:35;;;;;;;0.00;0.00;;;16.30;99.90;;;;;;5049972;28;20275;-77
2022/06/10 01:57:08;;;;;;;0.00;0.00;;;16.30;99.90;;;;;;5041768;28;20553;-77
2022/06/10 01:59:39;;;;;;;0.00;0.00;;;16.30;99.90;;;;;;5045774;28;20230;-77
2022/06/10 02:02:11;;;;;;;0.00;0.00;;;16.20;99.90;;;;;;5064214;28;20309;-76
2022/06/10 02:04:43;;;;;;;0.00;0.00;;;16.20;99.90;;;;;;5039801;28;20198;-77
2022/06/10 02:07:15;;;;;;;0.00;0.00;;;16.20;99.90;;;;;;5038818;28;20297;-77
2022/06/10 02:09:47;;;;;;;0.00;0.00;;;16.20;99.90;;;;;;5062952;28;20195;-76
2022/06/10 02:12:21;;;;;;;0.00;0.00;;;16.20;99.90;;;;;;5044950;28;20290;-77
2022/06/10 02:14:54;;;;;;;0.00;0.00;;;16.20;99.90;;;;;;5063860;28;20209;-77
2022/06/10 02:17:26;;;;;;;0.00;0.00;;;16.20;99.90;;;;;;5044831;28;20237;-77
2022/06/10 02:19:57;;;;;;;0.00;0.00;;;16.10;99.90;;;;;;5045197;28;20299;-77
2022/06/10 02:22:31;;;;;;;0.00;0.00;;;16.10;99.90;;;;;;5044648;28;20218;-76
2022/06/10 02:25:05;;;;;;;0.00;0.00;;;16.30;99.90;;;;;;5063373;28;20209;-77
2022/06/10 02:27:36;;;;;;;0.00;0.00;;;;;;;;;;5041288;28;20207;-77
2022/06/10 02:30:06;;;;;;;0.00;0.00;;;;;;;;;;5046094;28;20210;-77
2022/06/10 02:32:35;;;;;;;0.00;0.00;;;;;;;;;;5061458;28;20218;-77
2022/06/10 02:35:04;;;;;;;0.00;0.00;;;;;;;;;;5041429;28;20210;-77
2022/06/10 02:37:40;;;;;;;0.00;0.00;;;16.00;99.90;;;;;;5042104;28;20201;-77
2022/06/10 02:40:15;;;;;;;0.00;0.00;;;15.90;99.90;;;;;;5043380;28;20229;-78
2022/06/10 02:42:52;;;;;;;0.00;0.00;;;15.90;99.90;;;;;;5044039;28;20222;-77
2022/06/10 02:45:23;;;;;;;0.00;0.00;;;;;;;;;;5049184;28;20202;-78
2022/06/10 02:47:57;;;;;;;0.00;0.00;;;;;;;;;;5061936;28;20652;-77
2022/06/10 02:50:24;;;;;;;0.00;0.00;;;;;;;;;;5048019;28;20245;-77
2022/06/10 02:52:52;;;;;;;0.00;0.00;;;;;;;;;;5045177;28;20205;-77
2022/06/10 02:55:20;;;;;;;0.00;0.00;;;;;;;;;;5065454;28;20205;-77
2022/06/10 03:03:28;;;;;;;0.00;0.00;;;;;;;;;;5043662;28;20233;-77
2022/06/10 03:06:00;;;;;;;0.00;0.00;;;;;;;;;;5039240;28;20286;-77
2022/06/10 03:08:30;;;;;;;0.00;0.00;;;;;;;;;;5046802;28;20209;-78
2022/06/10 03:11:03;;;;;;;0.00;0.00;;;;;;;;;;5058201;28;20215;-77
2022/06/10 03:13:37;;;;;;;0.00;0.00;;;;;;;;;;5045704;28;20229;-77
2022/06/10 03:16:14;;;;;;;0.00;0.00;;;;;;;;;;5040676;28;20202;-78
2022/06/10 03:18:46;;;;;;;0.00;0.00;;;;;;;;;;5048148;28;20212;-77
2022/06/10 03:21:17;;;;;;;0.00;0.00;;;;;;;;;;5043413;28;20234;-77
2022/06/10 03:23:49;;;;;;;0.00;0.00;;;;;;;;;;5046145;28;20218;-77
2022/06/10 03:26:22;;;;;;;0.00;0.00;;;;;;;;;;5065722;28;20226;-77
2022/06/10 03:28:51;;;;;;;0.00;0.00;;;;;;;;;;5044389;28;20226;-77
2022/06/10 03:31:24;;;;;;;0.00;0.00;;;;;;;;;;5049381;28;20214;-77
2022/06/10 03:33:55;;;;;;;0.00;0.00;;;;;;;;;;5060510;28;20199;-77
2022/06/10 03:36:24;;;;;;;0.00;0.00;;;;;;;;;;5048503;28;20206;-77
2022/06/10 03:38:53;;;;;;;0.00;0.00;;;;;;;;;;5048485;28;20203;-76
2022/06/10 03:41:21;;;;;;;0.00;0.00;;;;;;;;;;5046447;28;20307;-77
2022/06/10 03:43:50;;;;;;;0.00;0.00;;;;;;;;;;5047922;28;20203;-77
2022/06/10 03:46:18;;;;;;;0.00;0.00;;;;;;;;;;5046707;28;20199;-77
2022/06/10 03:48:47;;;;;;;0.00;0.00;;;;;;;;;;5042333;28;20202;-76
2022/06/10 03:51:16;;;;;;;0.00;0.00;;;;;;;;;;5042827;28;20222;-76
2022/06/10 03:53:44;;;;;;;0.00;0.00;;;;;;;;;;5059471;28;20198;-76
2022/06/10 03:56:12;;;;;;;0.00;0.00;;;;;;;;;;5040934;28;20234;-77
2022/06/10 03:58:40;;;;;;;0.00;0.00;;;;;;;;;;5038470;28;20203;-75
2022/06/10 04:01:07;;;;;;;0.00;0.00;;;;;;;;;;5043613;28;20220;-77
2022/06/10 04:03:35;;;;;;;0.00;0.00;;;;;;;;;;5042381;28;20202;-77
2022/06/10 04:06:03;;;;;;;0.03;0.03;;;;;;;;;;5039417;28;20226;-78
2022/06/10 04:08:32;;;;;;;0.00;0.00;;;;;;;;;;5046670;28;20199;-77
2022/06/10 04:10:59;;;;;;;0.00;0.00;;;;;;;;;;5036498;28;20704;-77
2022/06/10 04:13:27;;;;;;;0.00;0.00;;;;;;;;;;5043936;28;20197;-77
2022/06/10 04:15:54;;;;;;;0.00;0.00;;;;;;;;;;5062900;28;20198;-77
2022/06/10 04:18:22;;;;;;;0.00;0.00;;;;;;;;;;5045780;28;20234;-77
2022/06/10 04:20:49;;;;;;;0.00;0.00;;;;;;;;;;5038676;28;20277;-77
2022/06/10 04:23:16;;;;;;;0.00;0.00;;;;;;;;;;5036063;28;20275;-77
2022/06/10 04:25:45;;;;;;;0.00;0.00;;;;;;;;;;5045519;28;20203;-77
2022/06/10 04:28:13;;;;;;;0.00;0.00;;;;;;;;;;5041805;28;20679;-77
2022/06/10 04:30:42;;;;;;;0.00;0.00;;;;;;;;;;5058819;28;20218;-77
2022/06/10 04:33:10;;;;;;;0.00;0.00;;;;;;;;;;5041948;28;20203;-77
2022/06/10 04:35:38;;;;;;;0.00;0.00;;;;;;;;;;5046616;28;20206;-78
2022/06/10 04:38:07;;;;;;;0.00;0.00;;;;;;;;;;5038164;28;20214;-78
2022/06/10 04:40:36;;;;;;;0.00;0.00;;;;;;;;;;5046849;28;20272;-77
2022/06/10 04:43:06;;;;;;;0.00;0.00;;;;;;;;;;5046907;28;20203;-77
2022/06/10 04:45:36;;;;;;;0.00;0.00;;;;;;;;;;5058076;28;20209;-78
2022/06/10 04:48:04;;;;;;;0.00;0.00;;;;;;;;;;5043375;28;20206;-77
2022/06/10 04:50:32;;;;;;;0.00;0.00;;;;;;;;;;5065193;28;20260;-77
2022/06/10 04:52:59;;;;;;;0.00;0.00;;;;;;;;;;5032376;28;20215;-77
2022/06/10 04:55:28;;;;;;;0.00;0.00;;;;;;;;;;5040394;28;20205;-78
2022/06/10 04:57:55;;;;;;;0.00;0.00;;;;;;;;;;5053870;28;20193;-78
2022/06/10 05:00:28;;;;;;;0.00;0.00;;;;;;;;;;5059600;28;20222;-78
2022/06/10 05:02:55;;;;;;;0.00;0.00;;;;;;;;;;5061804;28;20209;-77
2022/06/10 05:05:24;;;;;;;0.00;0.00;;;;;;;;;;5042194;28;20286;-77
2022/06/10 05:07:51;;;;;;;0.00;0.00;;;;;;;;;;5042285;28;20220;-77
2022/06/10 05:10:19;;;;;;;0.00;0.00;;;;;;;;;;5046571;28;20230;-77
2022/06/10 05:12:47;;;;;;;0.00;0.00;;;;;;;;;;5054576;28;20203;-77
2022/06/10 05:15:15;;;;;;;0.00;0.00;;;;;;;;;;5043615;28;20198;-77
2022/06/10 05:17:44;;;;;;;0.00;0.00;;;;;;;;;;5038765;28;20203;-78
2022/06/10 05:20:13;;;;;;;0.00;0.00;;;;;;;;;;5042967;28;20246;-77
2022/06/10 05:22:40;;;;;;;0.00;0.00;;;;;;;;;;5037921;28;20215;-77
2022/06/10 05:25:09;;;;;;;0.00;0.00;;;;;;;;;;5039236;28;20234;-77
2022/06/10 05:27:36;;;;;;;0.00;0.00;;;;;;;;;;5041336;28;20252;-77
2022/06/10 05:30:04;;;;;;;0.00;0.00;;;;;;;;;;5064637;28;20258;-77
2022/06/10 05:32:32;;;;;;;0.00;0.00;;;;;;;;;;5061993;28;20653;-77
2022/06/10 05:35:01;;;;;;;0.00;0.00;;;;;;;;;;5045838;28;20209;-77
2022/06/10 05:37:28;;;;;;;0.00;0.00;;;;;;;;;;5044748;28;20241;-77
2022/06/10 05:39:56;;;;;;;0.00;0.00;;;;;;;;;;5039496;28;20203;-77
2022/06/10 05:42:24;;;;;;;0.00;0.00;;;;;;;;;;5044420;28;20241;-77
2022/06/10 05:44:52;;;;;;;0.00;0.00;;;;;;;;;;5046082;28;20289;-77
2022/06/10 05:47:21;;;;;;;0.00;0.00;;;;;;;;;;5044264;28;20205;-78
2022/06/10 05:49:50;;;;;;;0.00;0.00;;;;;;;;;;5046405;28;20213;-77
2022/06/10 05:52:22;;;;;;;0.00;0.00;;;15.80;99.90;;;;;;5045467;28;20222;-77
2022/06/10 05:54:51;;;;;;;0.00;0.00;;;21.00;99.90;;;;;;5044875;28;20210;-77
2022/06/10 05:57:18;;;;;;;0.00;0.00;;;21.10;99.90;;;;;;5058793;28;20226;-77
2022/06/10 05:59:47;;;;;;;0.00;0.00;;;21.20;99.90;;;;;;5039890;28;20272;-77
2022/06/10 06:02:16;;;;;;;0.00;0.00;;;21.30;99.90;;;;;;5064165;28;20230;-76
2022/06/10 06:04:44;;;;;;;0.00;0.00;;;;;;;;;;5045213;28;20289;-76
2022/06/10 06:07:13;;;;;;;0.00;0.00;;;;;;;;;;5044359;28;20202;-77
2022/06/10 06:09:41;;;;;;;0.00;0.00;;;21.70;99.90;;;;;;5062509;28;20286;-77
2022/06/10 06:12:10;;;;;;;0.00;0.00;;;21.90;99.90;;;;;;5045552;28;20253;-77
2022/06/10 06:14:37;;;;;;;0.00;0.00;;;21.90;99.90;;;;;;5040275;28;20211;-77
2022/06/10 06:17:05;;;;;;;0.00;0.00;;;21.90;99.90;;;;;;5041353;28;20202;-77
2022/06/10 06:19:34;;;;;;;0.00;0.00;;;21.90;99.90;;;;;;5048374;28;20203;-77
2022/06/10 06:22:02;;;;;;;0.00;0.00;;;;;;;;;;5046632;28;20335;-77
2022/06/10 06:24:30;;;;;;;0.00;0.00;;;22.20;99.90;;;;;;5050120;28;20204;-77
2022/06/10 06:26:59;;;;;;;0.00;0.00;;;22.30;99.90;;;;;;5046398;28;20288;-76
2022/06/10 06:29:26;;;;;;;0.00;0.00;;;22.40;99.90;;;;;;5044139;28;20285;-76
2022/06/10 06:31:53;;;;;;;0.00;0.00;;;22.60;99.90;;;;;;5047470;28;20217;-77
2022/06/10 06:34:21;;;;;;;0.00;0.00;;;;;;;;;;5044647;28;20203;-77
2022/06/10 06:36:49;;;;;;;0.00;0.00;;;;;;;;;;5045242;28;20194;-76
2022/06/10 06:39:18;;;;;;;0.00;0.00;;;;;;;;;;5049706;28;20194;-77
2022/06/10 06:41:46;;;;;;;0.00;0.00;;;;;;;;;;5050223;28;20230;-77
2022/06/10 06:44:15;;;;;;;0.00;0.00;;;;;;;;;;5047813;28;20223;-76
2022/06/10 06:46:43;;;;;;;0.00;0.00;;;;;;;;;;5049058;28;20210;-76
2022/06/10 06:49:15;;;;;;;0.00;0.00;;;;;;;;;;5048616;28;20199;-76
2022/06/10 06:51:42;;;;;;;0.00;0.00;;;;;;;;;;5056130;28;20337;-76
2022/06/10 06:54:10;;;;;;;0.00;0.00;;;;;;;;;;5046967;28;20206;-76
2022/06/10 06:56:38;;;;;;;0.00;0.00;;;;;;;;;;5044669;28;20293;-77
2022/06/10 06:59:07;;;;;;;0.00;0.00;;;;;;;;;;5040652;28;20293;-77
2022/06/10 07:01:36;;;;;;;0.00;0.00;;;;;;;;;;5045224;28;20289;-77
2022/06/10 07:04:04;;;;;;;0.00;0.00;;;;;;;;;;5047006;28;20202;-77
2022/06/10 07:06:31;;;;;;;0.00;0.00;;;24.40;99.90;;;;;;5041601;28;20199;-77
2022/06/10 07:08:59;;;;;;;0.00;0.00;;;24.30;99.90;;;;;;5047050;28;20307;-76
2022/06/10 07:11:26;;;;;;;0.00;0.00;;;24.30;99.90;;;;;;5049131;28;20211;-77
2022/06/10 07:13:53;;;;;;;0.00;0.00;;;24.40;99.90;;;;;;5047884;28;20191;-77
2022/06/10 07:16:21;;;;;;;0.00;0.00;;;24.30;99.90;;;;;;5045268;28;20552;-77
2022/06/10 07:18:51;;;;;;;0.00;0.00;;;24.00;99.90;;;;;;5048625;28;20632;-77
2022/06/10 07:21:19;;;;;;;0.00;0.00;;;24.10;99.90;;;;;;5043516;28;20322;-78
2022/06/10 07:23:46;;;;;;;0.00;0.00;;;24.00;99.90;;;;;;5049074;28;20195;-77
2022/06/10 07:26:13;;;;;;;0.00;0.00;;;24.00;99.90;;;;;;5044633;28;20219;-76
2022/06/10 07:28:41;;;;;;;0.00;0.00;;;;;;;;;;5060126;28;20199;-77
2022/06/10 07:31:08;;;;;;;0.00;0.00;;;;;;;;;;5064528;28;20245;-77
2022/06/10 07:33:36;;;;;;;0.00;0.00;;;;;;;;;;5045372;28;20190;-76
2022/06/10 07:36:06;;;;;;;0.00;0.00;;;;;;;;;;5062211;28;20222;-77
2022/06/10 07:38:34;;;;;;;0.00;0.00;;;;;;;;;;5046083;28;20194;-76
2022/06/10 07:43:47;;;;;;;0.00;0.00;;;;;;;;;;5048086;28;20537;-77
2022/06/10 07:46:16;;;;;;;0.00;0.00;;;25.50;99.90;;;;;;5042161;28;20667;-77
2022/06/10 07:48:44;;;;;;;0.00;0.00;;;25.60;99.90;;;;;;5064398;28;20209;-77
2022/06/10 07:51:13;;;;;;;0.00;0.00;;;;;;;;;;5041200;28;20225;-77
2022/06/10 07:53:41;;;;;;;0.00;0.00;;;25.40;99.90;;;;;;5038380;28;20202;-77
2022/06/10 07:56:09;;;;;;;0.00;0.00;;;25.30;99.90;;;;;;5059064;28;20203;-76
2022/06/10 07:58:36;;;;;;;0.00;0.00;;;25.10;99.90;;;;;;5043543;28;20256;-77
2022/06/10 08:01:03;;;;;;;0.00;0.00;;;24.90;99.90;;;;;;5063845;28;20242;-77
2022/06/10 08:03:30;;;;;;;0.00;0.00;;;24.90;99.90;;;;;;5041403;28;20213;-76
2022/06/10 08:05:59;;;;;;;0.00;0.00;;;24.90;99.90;;;;;;5039648;28;20207;-77
2022/06/10 08:08:28;;;;;;;0.00;0.00;;;24.80;99.90;;;;;;5041101;28;20199;-77
2022/06/10 08:10:55;;;;;;;0.00;0.00;;;24.80;99.90;;;;;;5060372;28;20219;-76
2022/06/10 08:13:23;;;;;;;0.00;0.00;;;24.90;99.90;;;;;;5045669;28;20222;-76
2022/06/10 08:15:50;;;;;;;0.00;0.00;;;24.90;99.90;;;;;;5046864;28;20202;-75
2022/06/10 08:18:20;;;;;;;0.00;0.00;;;24.90;99.90;;;;;;5064340;28;20214;-77
2022/06/10 08:23:37;;;;;;;0.00;0.00;;;24.80;99.90;;;;;;5065474;28;20201;-76
2022/06/10 08:26:07;;;;;;;0.00;0.00;;;24.50;99.90;;;;;;5063552;28;20199;-77
2022/06/10 08:28:35;;;;;;;0.00;0.00;;;24.30;99.90;;;;;;5059672;28;20252;-77
2022/06/10 08:31:02;;;;;;;0.00;0.00;;;24.30;99.90;;;;;;5044721;28;20226;-76
2022/06/10 08:33:30;;;;;;;0.00;0.00;;;24.40;99.90;;;;;;5044748;28;20252;-76
2022/06/10 08:35:57;;;;;;;0.00;0.00;;;24.80;99.90;;;;;;5046647;28;20199;-77
2022/06/10 08:38:24;;;;;;;0.00;0.00;;;25.10;99.90;;;;;;5060423;28;20198;-76
2022/06/10 08:40:57;;;;;;;0.00;0.00;;;;;;;;;;5041964;28;20238;-77
2022/06/10 08:43:54;;;;;;;0.00;0.00;;;25.60;99.90;;;;;;5064773;28;20194;-77
2022/06/10 08:46:46;;;;;;;0.00;0.00;;;25.80;99.90;;;;;;5040104;28;20217;-77
2022/06/10 08:49:35;;;;;;;0.00;0.00;;;25.70;99.90;;;;;;5060061;28;20214;-77
2022/06/10 08:52:11;;;;;;;0.00;0.00;;;25.70;99.90;;;;;;5046159;28;20260;-76
2022/06/10 08:54:44;;;;;;;0.00;0.00;;;25.50;99.90;;;;;;5060846;28;20190;-77
2022/06/10 08:57:21;;;;;;;0.00;0.00;;;25.60;99.90;;;;;;5044568;28;20203;-76
2022/06/10 08:59:50;;;;;;;0.00;0.00;;;25.70;99.90;;;;;;5041010;28;20210;-77
2022/06/10 09:02:25;;;;;;;0.00;0.00;;;;;;;;;;5058905;28;20253;-77
2022/06/10 09:04:56;;;;;;;0.00;0.00;;;;;;;;;;5059196;28;20225;-76
2022/06/10 09:07:26;;;;;;;0.00;0.00;;;;;;;;;;5038879;28;20210;-77
2022/06/10 09:09:54;;;;;;;0.00;0.00;;;;;;;;;;5046989;28;20207;-78
2022/06/10 09:12:30;;;;;;;0.00;0.00;;;;;;;;;;5064016;28;20214;-76
2022/06/10 09:15:03;;;;;;;0.00;0.00;;;;;;;;;;5044772;28;20249;-76
2022/06/10 09:17:33;;;;;;;0.00;0.00;;;;;;;;;;5062612;28;20196;-76
2022/06/10 09:20:04;;;;;;;0.00;0.00;;;;;;;;;;5045719;28;20202;-76
2022/06/10 09:22:38;;;;;;;0.00;0.00;;;;;;;;;;5038508;28;20734;-77
2022/06/10 09:25:08;;;;;;;0.00;0.00;;;;;;;;;;5054512;28;20215;-76
2022/06/10 09:27:38;;;;;;;0.00;0.00;;;;;;;;;;5060427;28;20306;-77
2022/06/10 09:30:06;;;;;;;0.00;0.00;;;;;;;;;;5047068;28;20207;-77
2022/06/10 09:32:41;;;;;;;0.00;0.00;;;;;;;;;;5043348;28;20214;-76
2022/06/10 09:35:13;;;;;;;0.00;0.00;;;;;;;;;;5059866;28;20194;-76
2022/06/10 09:37:42;;;;;;;0.00;0.00;;;;;;;;;;5039658;28;20198;-77
2022/06/10 09:43:22;;;;;;;0.00;0.00;;;26.80;99.90;;;;;;5032050;28;20222;-77
2022/06/10 09:45:58;;;;;;;0.00;0.00;;;26.90;99.90;;;;;;5044462;28;20202;-77
2022/06/10 09:48:41;;;;;;;0.00;0.00;;;26.90;99.90;;;;;;5045353;28;20198;-76
2022/06/10 09:51:14;;;;;;;0.00;0.00;;;26.80;99.90;;;;;;5039575;28;20302;-77
2022/06/10 09:53:59;;;;;;;0.00;0.00;;;26.70;99.90;;;;;;5045250;28;20200;-77
2022/06/10 09:56:54;;;;;;;0.00;0.00;;;26.70;99.90;;;;;;5045993;28;20202;-76
2022/06/10 09:59:29;;;;;;;0.00;0.00;;;26.80;99.90;;;;;;5042691;28;20195;-76
2022/06/10 10:02:24;;;;;;;0.00;0.00;;;27.00;99.90;;;;;;5047281;28;20287;-77
2022/06/10 10:05:05;;;;;;;0.00;0.00;;;27.00;99.90;;;;;;5045490;28;20202;-76
2022/06/10 10:07:44;;;;;;;0.00;0.00;;;27.10;99.90;;;;;;5062098;28;20282;-77
2022/06/10 10:10:22;;;;;;;0.00;0.00;;;27.20;99.90;;;;;;5046835;28;20236;-77
2022/06/10 10:13:23;;;;;;;0.00;0.00;;;27.30;99.90;;;;;;5043100;28;20195;-76
2022/06/10 10:15:58;;;;;;;0.00;0.00;;;27.50;99.90;;;;;;5041300;28;20203;-77
2022/06/10 10:18:46;;;;;;;0.00;0.00;;;27.50;99.90;;;;;;5049031;28;20202;-76
2022/06/10 10:21:15;;;;;;;0.00;0.00;;;27.60;99.90;;;;;;5046085;28;20289;-77
2022/06/10 10:23:46;;;;;;;0.00;0.00;;;27.70;99.90;;;;;;5050713;28;20198;-77
2022/06/10 10:26:20;;;;;;;0.00;0.00;;;27.70;99.90;;;;;;5048933;28;20249;-77
2022/06/10 10:28:50;;;;;;;0.00;0.00;;;27.80;99.90;;;;;;5041821;28;20209;-74
2022/06/10 10:31:21;;;;;;;0.00;0.00;;;27.70;99.90;;;;;;5047506;28;20227;-76
2022/06/10 10:33:49;;;;;;;0.00;0.00;;;27.70;99.90;;;;;;5065239;28;20209;-76
2022/06/10 10:36:23;;;;;;;0.00;0.00;;;27.80;99.90;;;;;;5066509;28;20214;-76
2022/06/10 10:38:53;;;;;;;0.00;0.00;;;27.90;99.90;;;;;;5062475;28;20194;-75
2022/06/10 10:41:30;;;;;;;0.00;0.00;;;28.10;99.90;;;;;;5048084;28;20244;-75
2022/06/10 10:44:01;;;;;;;0.00;0.00;;;28.10;99.90;;;;;;5065071;28;20287;-76
2022/06/10 10:46:34;;;;;;;0.00;0.00;;;28.10;99.90;;;;;;5047334;28;20194;-76
2022/06/10 10:49:05;;;;;;;0.00;0.00;;;28.10;99.90;;;;;;5039207;28;20293;-76
2022/06/10 10:51:40;;;;;;;0.00;0.00;;;27.90;99.90;;;;;;5050893;28;20300;-76
2022/06/10 10:54:14;;;;;;;0.00;0.00;;;27.50;99.90;;;;;;5046547;28;20213;-76
2022/06/10 10:56:46;;;;;;;0.00;0.00;;;27.30;99.90;;;;;;5057074;28;20202;-76
2022/06/10 10:59:26;;;;;;;0.00;0.00;;;27.20;99.90;;;;;;5040531;28;20230;-77
2022/06/10 11:01:55;;;;;;;0.00;0.00;;;27.30;99.90;;;;;;5044953;28;20284;-76
2022/06/10 11:04:28;;;;;;;0.00;0.00;;;27.40;99.90;;;;;;5039589;28;20207;-75
2022/06/10 11:07:01;;;;;;;0.00;0.00;;;27.50;99.90;;;;;;5040674;28;20198;-75
2022/06/10 11:09:29;;;;;;;0.00;0.00;;;27.50;99.90;;;;;;5044028;28;20195;-75
2022/06/10 11:11:58;;;;;;;0.00;0.00;;;27.60;99.90;;;;;;5049881;28;20213;-75
2022/06/10 11:14:28;;;;;;;0.00;0.00;;;27.70;99.90;;;;;;5046156;28;20251;-75
2022/06/10 11:17:15;;;;;;;0.00;0.00;;;27.80;99.90;;;;;;5044570;28;20212;-76
2022/06/10 11:19:49;;;;;;;0.00;0.00;;;27.90;99.90;;;;;;5062234;28;20209;-75
2022/06/10 11:22:39;;;;;;;0.00;0.00;;;27.90;99.90;;;;;;5049063;28;20230;-76
2022/06/10 11:25:23;;;;;;;0.00;0.00;;;28.00;99.90;;;;;;5035477;28;20202;-76
2022/06/10 11:28:03;;;;;;;0.00;0.00;;;28.10;99.90;;;;;;5059615;28;20198;-77
2022/06/10 11:30:38;;;;;;;0.00;0.00;;;28.20;99.90;;;;;;5066041;28;20197;-75
2022/06/10 11:33:17;;;;;;;0.00;0.00;;;28.30;99.90;;;;;;5064626;28;20217;-76
2022/06/10 11:36:08;;;;;;;0.00;0.00;;;28.30;99.90;;;;;;5047514;28;20213;-75
2022/06/10 11:38:39;;;;;;;0.00;0.00;;;28.30;99.90;;;;;;5047882;28;20199;-75
2022/06/10 11:41:24;;;;;;;0.00;0.00;;;28.40;99.90;;;;;;5038743;28;20341;-76
2022/06/10 11:43:56;;;;;;;0.00;0.00;;;28.40;99.90;;;;;;5040007;28;20365;-75
2022/06/10 11:46:28;;;;;;;0.00;0.00;;;28.40;99.90;;;;;;5046942;28;20203;-75
2022/06/10 11:49:02;;;;;;;0.00;0.00;;;28.30;99.90;;;;;;5062446;28;20260;-75
2022/06/10 11:51:34;;;;;;;0.00;0.00;;;28.30;99.90;;;;;;5056164;28;20222;-76
2022/06/10 11:54:05;;;;;;;0.00;0.00;;;28.30;99.90;;;;;;5045182;28;20203;-76
2022/06/10 11:59:46;;;;;;;0.00;0.00;;;28.30;99.90;;;;;;5057884;28;20202;-76
2022/06/10 12:02:21;;;;;;;0.00;0.00;;;28.30;99.90;;;;;;5059737;28;20222;-76
2022/06/10 12:05:00;;;;;;;0.00;0.00;;;28.30;99.90;;;;;;5041768;28;20210;-75
2022/06/10 12:07:30;;;;;;;0.00;0.00;;;28.30;99.90;;;;;;5038812;28;20206;-75
2022/06/10 12:10:02;;;;;;;0.00;0.00;;;28.40;99.90;;;;;;5041519;28;20579;-76
2022/06/10 12:12:34;;;;;;;0.00;0.00;;;28.40;99.90;;;;;;5039522;28;20219;-76
2022/06/10 12:15:13;;;;;;;0.00;0.00;;;28.40;99.90;;;;;;5047851;28;20240;-76
2022/06/10 12:17:42;;;;;;;0.00;0.00;;;28.40;99.90;;;;;;5039631;28;20210;-77
2022/06/10 12:20:16;;;;;;;0.00;0.00;;;28.40;99.90;;;;;;5047744;28;20199;-76
2022/06/10 12:22:44;;;;;;;0.00;0.00;;;28.30;99.90;;;;;;5041783;28;20623;-76
2022/06/10 12:25:18;;;;;;;0.00;0.00;;;28.00;99.90;;;;;;5063017;28;20320;-77
2022/06/10 12:27:49;;;;;;;0.00;0.00;;;27.80;99.90;;;;;;5040321;28;20237;-76
2022/06/10 12:30:20;;;;;;;0.00;0.00;;;27.60;99.90;;;;;;5040311;28;20646;-75
2022/06/10 12:32:54;;;;;;;0.00;0.00;;;27.50;99.90;;;;;;5044014;28;20219;-77
2022/06/10 12:35:28;;;;;;;0.00;0.00;;;27.50;99.90;;;;;;5063836;28;20286;-76
2022/06/10 12:37:57;;;;;;;0.00;0.00;;;27.50;99.90;;;;;;5041432;28;20207;-76
2022/06/10 12:40:29;;;;;;;0.00;0.00;;;27.50;99.90;;;;;;5036377;28;20217;-75
2022/06/10 12:43:00;;;;;;;0.00;0.00;;;27.50;99.90;;;;;;5043126;28;20223;-77
2022/06/10 12:45:32;;;;;;;0.00;0.00;;;27.60;99.90;;;;;;5042642;28;20195;-76
2022/06/10 12:48:02;;;;;;;0.00;0.00;;;27.60;99.90;;;;;;5042060;28;20217;-76
2022/06/10 12:50:37;;;;;;;0.00;0.00;;;27.60;99.90;;;;;;5040105;28;20203;-77
2022/06/10 12:53:37;;;;;;;0.00;0.00;;;27.50;99.90;;;;;;5058630;28;20194;-76
2022/06/10 12:56:20;;;;;;;0.00;0.00;;;27.50;99.90;;;;;;5030921;28;20199;-75
2022/06/10 12:58:53;;;;;;;0.00;0.00;;;27.50;99.90;;;;;;5042622;28;20198;-76
2022/06/10 13:01:23;;;;;;;0.00;0.00;;;27.50;99.90;;;;;;5064695;28;20234;-76
2022/06/10 13:03:52;;;;;;;0.00;0.00;;;27.40;99.90;;;;;;5056149;28;20230;-76
2022/06/10 13:06:58;;;;;;;0.00;0.00;;;27.30;99.90;;;;;;5055223;28;20199;-76
2022/06/10 13:09:28;;;;;;;0.00;0.00;;;27.40;99.90;;;;;;4985912;28;20378;-74
2022/06/10 13:11:58;;;;;;;0.00;0.00;;;27.40;99.90;;;;;;5024711;28;20299;-76
2022/06/10 13:14:38;;;;;;;0.00;0.00;;;27.30;99.90;;;;;;5046217;28;20293;-76
2022/06/10 13:17:17;;;;;;;0.00;0.00;;;27.20;99.90;;;;;;5059291;28;20216;-77
2022/06/10 13:20:14;;;;;;;0.00;0.00;;;27.20;99.90;;;;;;5059843;28;20194;-77
2022/06/10 13:22:43;;;;;;;0.00;0.00;;;27.00;99.90;;;;;;5040720;28;20223;-76
2022/06/10 13:25:25;;;;;;;0.00;0.00;;;26.90;99.90;;;;;;5037516;28;20314;-76
2022/06/10 13:27:53;;;;;;;0.00;0.00;;;26.70;99.90;;;;;;5038317;28;20203;-75
2022/06/10 13:30:25;;;;;;;0.00;0.00;;;26.70;99.90;;;;;;5039818;28;20202;-75
2022/06/10 13:32:56;;;;;;;0.00;0.00;;;26.80;99.90;;;;;;5033082;28;20276;-76
2022/06/10 13:35:26;;;;;;;0.00;0.00;;;26.80;99.90;;;;;;5035223;28;20206;-76
2022/06/10 13:37:59;;;;;;;0.00;0.00;;;26.70;99.90;;;;;;5060593;28;20215;-76
2022/06/10 13:40:29;;;;;;;0.00;0.00;;;26.70;99.90;;;;;;5032233;28;20341;-75
2022/06/10 13:43:00;;;;;;;0.00;0.00;;;26.60;99.90;;;;;;5039256;28;20218;-74
2022/06/10 13:45:31;;;;;;;0.00;0.00;;;26.50;99.90;;;;;;5041762;28;20191;-76
2022/06/10 13:48:02;;;;;;;0.00;0.00;;;26.60;99.90;;;;;;5040635;28;20207;-76
2022/06/10 13:50:58;;;;;;;0.00;0.00;;;26.60;99.90;;;;;;5039645;28;20256;-77
2022/06/10 13:53:33;;;;;;;0.00;0.00;;;26.60;99.90;;;;;;5036970;28;20203;-76
2022/06/10 13:56:02;;;;;;;0.00;0.00;;;26.70;99.90;;;;;;5042100;28;20221;-75
2022/06/10 13:58:32;;;;;;;0.00;0.00;;;26.70;99.90;;;;;;5044803;28;20202;-74
2022/06/10 14:01:02;;;;;;;0.00;0.00;;;26.70;99.90;;;;;;5062916;28;20222;-74
2022/06/10 14:03:51;;;;;;;0.00;0.00;;;26.70;99.90;;;;;;5064063;28;20218;-76
2022/06/10 14:06:23;;;;;;;0.00;0.00;;;26.70;99.90;;;;;;5045586;28;20194;-77
2022/06/10 14:08:56;;;;;;;0.00;0.00;;;26.60;99.90;;;;;;5063053;28;20206;-77